createdAt,value
2022-08-23T00:00:20.170Z,19.90
2022-08-23T00:05:23.158Z,19.90
2022-08-23T00:10:26.010Z,20.00
2022-08-23T00:15:29.520Z,19.90
2022-08-23T00:20:32.633Z,19.90
2022-08-23T00:25:35.567Z,19.80
2022-08-23T00:30:38.439Z,19.80
2022-08-23T00:35:41.270Z,19.70
2022-08-23T00:40:47.553Z,19.70
2022-08-23T00:46:46.584Z,19.70
2022-08-23T00:52:25.149Z,19.60
2022-08-23T00:57:29.273Z,19.60
2022-08-23T01:02:32.308Z,19.60
2022-08-23T01:07:54.650Z,19.60
2022-08-23T01:13:23.947Z,19.70
2022-08-23T01:18:30.419Z,19.70
2022-08-23T01:23:44.692Z,19.70
2022-08-23T01:28:47.849Z,19.80
2022-08-23T01:34:00.262Z,19.80
2022-08-23T01:39:05.919Z,19.90
2022-08-23T01:44:09.515Z,19.90
2022-08-23T01:49:13.426Z,20.00
2022-08-23T01:54:16.687Z,20.00
2022-08-23T01:59:19.896Z,20.00
2022-08-23T02:04:22.858Z,20.10
2022-08-23T02:09:25.857Z,20.10
2022-08-23T02:14:28.998Z,20.00
2022-08-23T02:19:35.038Z,20.10
2022-08-23T02:24:46.751Z,20.00
2022-08-23T02:29:50.359Z,20.10
2022-08-23T02:35:04.970Z,20.10
2022-08-23T02:40:09.921Z,20.10
2022-08-23T02:45:13.250Z,20.10
2022-08-23T02:50:16.093Z,20.10
2022-08-23T02:55:20.626Z,20.10
2022-08-23T03:00:23.754Z,20.10
2022-08-23T03:05:26.929Z,20.20
2022-08-23T03:10:29.981Z,20.20
2022-08-23T03:15:33.371Z,20.20
2022-08-23T03:20:37.254Z,20.20
2022-08-23T03:25:40.598Z,20.20
2022-08-23T03:30:43.537Z,20.30
2022-08-23T03:35:47.662Z,20.30
2022-08-23T03:40:52.646Z,20.30
2022-08-23T03:45:55.829Z,20.30
2022-08-23T03:50:58.799Z,20.30
2022-08-23T03:56:01.772Z,20.30
2022-08-23T04:01:05.569Z,20.30
2022-08-23T04:06:08.470Z,20.20
2022-08-23T04:11:13.415Z,20.20
2022-08-23T04:16:19.002Z,20.20
2022-08-23T04:21:23.565Z,20.20
2022-08-23T04:26:30.177Z,20.20
2022-08-23T04:31:34.647Z,20.20
2022-08-23T04:36:44.781Z,20.20
2022-08-23T04:42:14.963Z,20.20
2022-08-23T04:47:18.267Z,20.20
2022-08-23T04:52:21.209Z,20.20
2022-08-23T04:57:24.141Z,20.30
2022-08-23T05:02:29.809Z,20.30
2022-08-23T05:07:42.086Z,20.30
2022-08-23T05:12:47.274Z,20.40
2022-08-23T05:17:50.230Z,20.40
2022-08-23T05:22:54.478Z,20.40
2022-08-23T05:27:57.571Z,20.40
2022-08-23T05:33:01.066Z,20.50
2022-08-23T05:38:05.572Z,20.50
2022-08-23T05:43:08.450Z,20.50
2022-08-23T05:48:12.965Z,20.50
2022-08-23T05:58:32.778Z,20.50
2022-08-23T06:03:36.571Z,20.60
2022-08-23T06:08:40.367Z,20.60
2022-08-23T06:13:46.860Z,20.60
2022-08-23T06:18:50.779Z,20.60
2022-08-23T06:23:53.685Z,20.60
2022-08-23T06:28:59.473Z,20.60
2022-08-23T06:34:02.650Z,20.60
2022-08-23T06:39:07.728Z,20.60
2022-08-23T06:44:10.707Z,20.60
2022-08-23T06:49:13.927Z,20.60
2022-08-23T06:54:20.709Z,20.70
2022-08-23T06:59:23.914Z,20.70
2022-08-23T07:04:32.904Z,20.80
2022-08-23T07:09:36.510Z,20.80
2022-08-23T07:14:39.701Z,20.90
2022-08-23T07:19:44.247Z,21.00
2022-08-23T07:24:48.704Z,21.00
2022-08-23T07:29:51.650Z,21.10
2022-08-23T07:34:54.629Z,21.10
2022-08-23T07:39:58.581Z,21.10
2022-08-23T07:45:02.911Z,21.20
2022-08-23T07:50:07.028Z,21.30
2022-08-23T07:55:10.143Z,21.30
2022-08-23T08:00:13.476Z,21.50
2022-08-23T08:05:21.472Z,21.60
2022-08-23T08:10:25.175Z,21.70
2022-08-23T08:15:28.041Z,21.90
2022-08-23T08:20:35.193Z,22.00
2022-08-23T08:25:38.113Z,21.90
2022-08-23T08:30:41.244Z,21.90
2022-08-23T08:35:57.628Z,22.00
2022-08-23T08:41:28.948Z,22.10
2022-08-23T08:46:53.420Z,22.30
2022-08-23T08:52:22.286Z,22.50
2022-08-23T08:57:27.838Z,22.60
2022-08-23T09:02:35.002Z,22.70
2022-08-23T09:08:17.806Z,22.80
2022-08-23T09:14:22.729Z,22.90
2022-08-23T09:19:25.965Z,23.10
2022-08-23T09:24:30.656Z,23.20
2022-08-23T09:29:37.451Z,23.20
2022-08-23T09:34:43.093Z,23.30
2022-08-23T09:40:17.555Z,23.40
2022-08-23T09:45:38.472Z,23.40
2022-08-23T09:50:58.306Z,23.60
2022-08-23T09:56:18.004Z,23.70
2022-08-23T10:01:26.095Z,23.90
2022-08-23T10:06:34.244Z,23.90
2022-08-23T10:11:45.033Z,23.80
2022-08-23T10:17:17.890Z,23.90
2022-08-23T10:22:24.653Z,24.00
2022-08-23T10:28:02.947Z,24.00
2022-08-23T10:33:18.639Z,24.00
2022-08-23T10:38:46.206Z,23.90
2022-08-23T10:43:54.629Z,23.90
2022-08-23T10:49:03.079Z,23.90
2022-08-23T10:54:10.098Z,24.10
2022-08-23T10:59:24.027Z,24.40
2022-08-23T11:04:36.621Z,24.60
2022-08-23T11:10:16.870Z,24.80
2022-08-23T11:15:44.625Z,25.00
2022-08-23T11:20:51.070Z,25.20
2022-08-23T11:25:53.823Z,25.40
2022-08-23T11:31:00.064Z,25.50
2022-08-23T11:36:11.410Z,25.50
2022-08-23T11:41:20.252Z,25.60
2022-08-23T11:46:26.900Z,25.60
2022-08-23T11:52:05.946Z,25.60
2022-08-23T11:57:48.487Z,25.60
2022-08-23T12:03:09.497Z,25.50
2022-08-23T12:08:13.165Z,25.50
2022-08-23T12:13:22.036Z,25.90
2022-08-23T12:18:25.926Z,26.00
2022-08-23T12:23:30.898Z,26.30
2022-08-23T12:28:42.847Z,26.30
2022-08-23T12:34:22.607Z,26.20
2022-08-23T12:39:39.626Z,26.00
2022-08-23T12:44:45.889Z,26.00
2022-08-23T12:50:32.538Z,26.00
2022-08-23T12:55:41.535Z,25.90
2022-08-23T13:01:01.603Z,25.60
2022-08-23T13:06:12.330Z,25.40
2022-08-23T13:11:21.173Z,25.30
2022-08-23T13:16:42.419Z,25.40
2022-08-23T13:21:46.163Z,25.40
2022-08-23T13:26:49.534Z,25.60
2022-08-23T13:32:05.732Z,25.70
2022-08-23T13:37:29.551Z,25.80
2022-08-23T13:42:51.119Z,25.80
2022-08-23T13:48:15.842Z,25.70
2022-08-23T13:53:19.182Z,25.80
2022-08-23T13:58:34.836Z,26.20
2022-08-23T14:03:38.426Z,26.20
2022-08-23T14:08:41.410Z,26.00
2022-08-23T14:13:47.974Z,25.80
2022-08-23T14:24:14.552Z,26.10
2022-08-23T14:29:17.366Z,26.00
2022-08-23T14:34:25.384Z,25.90
2022-08-23T14:39:28.366Z,25.80
2022-08-23T14:44:35.953Z,25.70
2022-08-23T14:49:39.530Z,25.80
2022-08-23T14:54:42.650Z,25.90
2022-08-23T14:59:45.830Z,26.10
2022-08-23T15:04:48.775Z,26.20
2022-08-23T15:09:56.612Z,26.30
2022-08-23T15:14:59.526Z,26.40
2022-08-23T15:20:02.940Z,26.30
2022-08-23T15:25:06.378Z,26.30
2022-08-23T15:30:11.373Z,26.40
2022-08-23T15:35:15.295Z,26.30
2022-08-23T15:40:20.179Z,26.10
2022-08-23T15:45:23.372Z,26.00
2022-08-23T15:50:32.965Z,26.00
2022-08-23T15:55:35.727Z,25.90
2022-08-23T16:00:39.498Z,25.70
2022-08-23T16:05:46.464Z,25.50
2022-08-23T16:10:49.551Z,25.30
2022-08-23T16:15:53.064Z,25.10
2022-08-23T16:20:55.950Z,24.80
2022-08-23T16:26:01.227Z,24.60
2022-08-23T16:31:04.647Z,24.50
2022-08-23T16:36:08.783Z,24.40
2022-08-23T16:41:13.607Z,24.30
2022-08-23T16:46:18.004Z,24.10
2022-08-23T16:51:21.952Z,24.00
2022-08-23T16:56:24.812Z,23.80
2022-08-23T17:01:29.141Z,23.60
2022-08-23T17:06:32.585Z,23.40
2022-08-23T17:11:37.856Z,23.30
2022-08-23T17:16:42.490Z,23.20
2022-08-23T17:21:45.548Z,23.00
2022-08-23T17:26:49.763Z,22.90
2022-08-23T17:31:52.786Z,22.80
2022-08-23T17:36:56.814Z,22.70
2022-08-23T17:42:00.017Z,22.60
2022-08-23T17:47:07.667Z,22.50
2022-08-23T17:52:12.241Z,22.40
2022-08-23T17:57:15.202Z,22.30
2022-08-23T18:02:20.736Z,22.20
2022-08-23T18:07:24.340Z,22.10
2022-08-23T18:12:27.673Z,22.00
2022-08-23T18:17:32.420Z,22.00
2022-08-23T18:22:37.289Z,21.90
2022-08-23T18:27:58.980Z,21.90
2022-08-23T18:33:02.768Z,21.80
2022-08-23T18:38:06.428Z,21.80
2022-08-23T18:43:09.453Z,21.80
2022-08-23T18:48:12.619Z,21.70
2022-08-23T18:53:17.981Z,21.70
2022-08-23T18:58:21.548Z,21.70
2022-08-23T19:03:25.844Z,21.60
2022-08-23T19:08:28.668Z,21.60
2022-08-23T19:13:33.222Z,21.50
2022-08-23T19:18:36.132Z,21.50
2022-08-23T19:23:39.021Z,21.40
2022-08-23T19:28:42.918Z,21.40
2022-08-23T19:33:45.870Z,21.30
2022-08-23T19:38:51.036Z,21.20
2022-08-23T19:43:54.139Z,21.20
2022-08-23T19:48:57.191Z,21.20
2022-08-23T19:54:09.898Z,21.10
2022-08-23T19:59:30.390Z,21.10
2022-08-23T20:04:34.183Z,21.00
2022-08-23T20:09:37.008Z,21.00
2022-08-23T20:14:39.807Z,21.00
2022-08-23T20:19:43.185Z,21.00
2022-08-23T20:24:51.951Z,21.00
2022-08-23T20:29:55.532Z,21.00
2022-08-23T20:34:59.303Z,21.00
2022-08-23T20:40:02.971Z,21.00
2022-08-23T20:45:06.750Z,21.00
2022-08-23T20:50:09.829Z,21.00
2022-08-23T20:55:13.362Z,21.00
2022-08-23T21:00:16.929Z,21.00
2022-08-23T21:05:19.865Z,21.00
2022-08-23T21:10:22.976Z,21.00
2022-08-23T21:15:25.892Z,20.90
2022-08-23T21:20:28.748Z,21.00
2022-08-23T21:25:32.257Z,21.00
2022-08-23T21:30:35.420Z,21.00
2022-08-23T21:35:39.018Z,21.00
2022-08-23T21:40:42.568Z,20.90
2022-08-23T21:45:45.554Z,20.90
2022-08-23T21:50:48.675Z,20.90
2022-08-23T21:55:52.022Z,20.90
2022-08-23T22:00:55.908Z,20.90
2022-08-23T22:05:58.879Z,20.80
2022-08-23T22:11:07.455Z,20.80
2022-08-23T22:16:12.154Z,20.70
2022-08-23T22:21:15.267Z,20.70
2022-08-23T22:26:18.376Z,20.70
2022-08-23T22:31:21.963Z,20.70
2022-08-23T22:36:25.227Z,20.60
2022-08-23T22:41:30.257Z,20.50
2022-08-23T22:46:35.724Z,20.50
2022-08-23T22:51:38.831Z,20.40
2022-08-23T22:56:50.837Z,20.30
2022-08-23T23:02:01.567Z,20.20
2022-08-23T23:07:06.367Z,20.20
2022-08-23T23:12:09.385Z,20.10
2022-08-23T23:17:29.942Z,20.10
2022-08-23T23:22:47.474Z,20.00
2022-08-23T23:27:51.249Z,20.00
2022-08-23T23:32:54.415Z,20.10
2022-08-23T23:37:58.467Z,20.10
2022-08-23T23:43:01.927Z,20.00
2022-08-23T23:48:07.683Z,20.00
2022-08-23T23:53:11.793Z,20.00
2022-08-23T23:58:14.825Z,20.00
